Time;durP1;ratioP1;P1;durP2;ratioP2;P2;SDS_P1;SDS_P2;PMS_P1;PMS_P2;Temp;Humidity;BMP_temperature;BMP_pressure;BME280_temperature;BME280_humidity;BME280_pressure;Samples;Min_cycle;Max_cycle;Signal;HPM_P1;HPM_P2
2022/08/12 00:43:25;;;;;;;15.82;6.30;;;;;;;23.78;39.07;100233.09;5091526;28;20561;-64
2022/08/12 00:48:36;;;;;;;18.85;6.20;;;;;;;23.56;38.95;100210.22;5090327;28;20043;-64
2022/08/12 00:51:02;;;;;;;13.57;6.22;;;;;;;23.67;39.33;100236.56;5089850;28;20075;-65
2022/08/12 00:53:31;;;;;;;17.48;6.18;;;;;;;23.59;39.22;100239.63;5091393;28;20155;-64
2022/08/12 00:55:58;;;;;;;16.85;7.07;;;;;;;23.64;39.11;100240.56;5090178;28;20048;-65
2022/08/12 00:58:27;;;;;;;16.63;6.80;;;;;;;23.64;39.39;100235.16;5089796;28;20039;-65
2022/08/12 01:01:03;;;;;;;19.92;6.47;;;;;;;23.59;39.45;100223.34;5090088;28;20058;-64
2022/08/12 01:11:27;;;;;;;20.45;6.07;;;;;;;23.67;39.60;100244.72;5091074;28;20139;-65
2022/08/12 01:11:50;;;;;;;15.68;6.82;;;;;;;23.53;39.92;100245.91;5091291;28;20048;-64
2022/08/12 01:14:22;;;;;;;15.13;7.55;;;;;;;23.44;40.08;100222.88;5090885;28;20048;-65
2022/08/12 01:16:50;;;;;;;20.08;7.15;;;;;;;23.47;40.14;100239.53;5089473;28;20067;-65
2022/08/12 01:19:19;;;;;;;16.55;8.20;;;;;;;23.57;40.23;100244.44;5091086;28;20044;-65
2022/08/12 01:21:54;;;;;;;18.42;8.10;;;;;;;23.63;40.16;100248.94;5090941;28;20451;-65
2022/08/12 01:24:45;;;;;;;14.82;8.27;;;;;;;23.66;40.61;100253.91;5090529;28;20044;-65
2022/08/12 01:27:13;;;;;;;17.23;7.72;;;;;;;23.54;40.98;100251.13;5090827;28;20039;-65
2022/08/12 01:29:47;;;;;;;16.60;7.82;;;;;;;23.43;40.93;100230.22;5089553;28;20102;-64
2022/08/12 01:32:14;;;;;;;18.65;7.85;;;;;;;23.54;40.65;100259.25;5090832;28;20040;-65
2022/08/12 01:34:57;;;;;;;21.45;8.15;;;;;;;23.69;41.00;100257.00;5090951;28;20452;-64
2022/08/12 01:37:24;;;;;;;17.40;7.78;;;;;;;23.65;40.83;100258.50;5089515;28;20402;-65
2022/08/12 01:39:53;;;;;;;28.20;8.57;;;;;;;23.63;40.43;100251.66;5089447;28;20044;-66
2022/08/12 01:42:20;;;;;;;27.63;8.70;;;;;;;23.65;40.89;100263.13;5072867;28;20048;-65
2022/08/12 01:44:46;;;;;;;18.45;8.90;;;;;;;23.57;40.69;100261.50;5089385;28;20406;-65
2022/08/12 01:47:39;;;;;;;15.73;8.57;;;;;;;23.68;40.70;100262.66;5089570;28;20205;-64
2022/08/12 01:50:25;;;;;;;18.63;8.30;;;;;;;23.42;40.93;100262.97;5090640;28;20043;-64
2022/08/12 01:52:53;;;;;;;24.10;8.57;;;;;;;23.55;41.22;100260.09;5090363;28;20171;-64
2022/08/12 01:55:24;;;;;;;18.65;8.25;;;;;;;23.51;41.25;100259.69;5089358;28;20051;-64
2022/08/12 01:57:53;;;;;;;;;;;;;;;23.63;40.55;100271.47;5089777;28;20036;-65
2022/08/12 02:00:19;;;;;;;21.05;8.07;;;;;;;23.36;41.34;100261.97;5089844;28;20270;-65
2022/08/12 02:03:19;;;;;;;23.30;8.00;;;;;;;23.55;40.41;100263.63;5090852;28;20050;-66
2022/08/12 02:11:56;;;;;;;24.92;10.25;;;;;;;23.67;39.65;100267.25;5089663;28;20073;-65
2022/08/12 02:14:37;;;;;;;23.58;9.35;;;;;;;23.73;40.19;100270.91;5072182;28;20036;-65
2022/08/12 02:17:15;;;;;;;;;;;;;;;23.82;39.43;100273.09;5091990;28;20093;-64
2022/08/12 02:20:04;;;;;;;33.92;11.40;;;;;;;23.78;39.16;100279.22;5094204;28;19916;-65
2022/08/12 02:22:43;;;;;;;37.78;12.80;;;;;;;23.79;39.13;100281.69;5094587;28;20051;-65
2022/08/12 02:25:25;;;;;;;33.42;10.45;;;;;;;23.84;39.62;100281.00;5093921;28;20424;-65
2022/08/12 02:27:53;;;;;;;42.58;14.45;;;;;;;23.77;39.33;100281.09;5094063;28;20090;-65
2022/08/12 02:30:24;;;;;;;34.15;13.18;;;;;;;23.79;39.12;100272.72;5093962;28;20047;-65
2022/08/12 02:32:52;;;;;;;42.95;16.45;;;;;;;23.77;39.08;100277.56;5093650;28;20048;-65
2022/08/12 02:35:25;;;;;;;45.20;17.73;;;;;;;23.84;39.23;100268.28;5093862;28;20044;-65
2022/08/12 02:37:53;;;;;;;53.38;19.02;;;;;;;23.83;38.88;100282.06;5093822;28;20044;-65
2022/08/12 02:40:21;;;;;;;55.63;19.00;;;;;;;23.74;38.95;100273.41;5094548;28;20486;-65
2022/08/12 02:42:59;;;;;;;43.42;14.95;;;;;;;23.94;38.43;100273.16;5093385;28;20134;-65
2022/08/12 02:45:34;;;;;;;42.75;14.60;;;;;;;23.80;38.69;100253.50;5092770;28;20050;-65
2022/08/12 02:48:05;;;;;;;27.55;11.93;;;;;;;23.92;39.37;100275.28;5093880;28;20414;-65
2022/08/12 02:50:31;;;;;;;;;;;;;;;24.05;39.23;100272.44;5094155;28;20042;-65
2022/08/12 02:52:57;;;;;;;28.50;11.38;;;;;;;23.87;39.65;100272.41;5074980;28;19920;-65
2022/08/12 02:55:26;;;;;;;37.65;13.05;;;;;;;24.03;39.66;100278.06;5093023;28;20420;-65
2022/08/12 02:57:53;;;;;;;32.67;12.90;;;;;;;23.89;40.10;100276.56;5093036;28;20515;-65
2022/08/12 03:00:18;;;;;;;30.27;11.52;;;;;;;23.82;39.92;100272.28;5091817;28;20512;-66
2022/08/12 03:02:46;;;;;;;35.95;13.32;;;;;;;24.00;40.03;100275.81;5093148;28;20036;-65
2022/08/12 03:05:14;;;;;;;34.17;13.48;;;;;;;23.94;39.70;100260.41;5093322;28;20051;-64
2022/08/12 03:07:53;;;;;;;33.42;12.68;;;;;;;24.19;39.64;100274.72;5092976;28;20489;-64
2022/08/12 03:10:23;;;;;;;29.95;11.98;;;;;;;24.23;39.67;100275.91;5074978;28;20109;-66
2022/08/12 03:12:53;;;;;;;38.28;11.55;;;;;;;24.21;40.13;100269.06;5093127;28;20421;-65
2022/08/12 03:15:22;;;;;;;30.30;11.43;;;;;;;24.27;40.16;100273.56;5091353;28;20048;-65
2022/08/12 03:18:08;;;;;;;21.95;11.27;;;;;;;24.40;40.36;100270.66;5093158;28;20360;-65
2022/08/12 03:20:39;;;;;;;26.52;10.60;;;;;;;24.43;40.22;100270.19;5091396;28;20476;-65
2022/08/12 03:23:08;;;;;;;31.83;11.38;;;;;;;24.42;39.64;100269.34;5091192;28;20440;-65
2022/08/12 03:25:36;;;;;;;29.40;11.00;;;;;;;24.25;40.19;100270.22;5092716;28;20048;-65
2022/08/12 03:28:03;;;;;;;24.85;11.27;;;;;;;24.18;40.29;100254.06;5091712;28;20044;-64
2022/08/12 03:30:32;;;;;;;30.02;12.05;;;;;;;24.29;40.06;100272.28;5074176;28;20059;-65
2022/08/12 03:33:00;;;;;;;31.27;11.27;;;;;;;24.29;40.25;100271.44;5074255;28;20065;-64
2022/08/12 03:35:31;;;;;;;23.80;11.43;;;;;;;24.35;40.59;100265.94;5092290;28;20040;-65
2022/08/12 03:38:01;;;;;;;25.98;11.07;;;;;;;24.22;40.34;100247.09;5092240;28;20181;-66
2022/08/12 04:02:40;;;;;;;26.92;11.25;;;;;;;24.80;40.16;100267.09;5091875;28;20048;-65
2022/08/12 04:05:19;;;;;;;25.88;11.82;;;;;;;24.77;40.33;100262.13;5090444;28;20092;-65
2022/08/12 04:07:47;;;;;;;33.50;12.00;;;;;;;24.68;41.06;100273.56;5074390;28;20048;-65
2022/08/12 04:10:13;;;;;;;33.22;13.07;;;;;;;24.67;41.15;100272.75;5090447;28;20043;-66
2022/08/12 04:15:26;;;;;;;36.55;12.38;;;;;;;24.84;41.09;100268.28;5091136;28;20047;-65
2022/08/12 04:17:52;;;;;;;39.67;15.00;;;;;;;24.63;40.69;100255.22;5092159;28;20040;-65
2022/08/12 04:20:19;;;;;;;32.80;12.48;;;;;;;24.81;41.21;100278.78;5091963;28;20046;-65
2022/08/12 04:22:45;;;;;;;41.17;13.18;;;;;;;24.83;40.93;100280.22;5073680;28;20044;-64
2022/08/12 04:25:11;;;;;;;32.22;12.65;;;;;;;24.97;41.37;100280.00;5091539;28;20044;-65
2022/08/12 04:27:38;;;;;;;31.52;12.93;;;;;;;25.10;41.40;100280.59;5090151;28;20134;-64
2022/08/12 04:30:06;;;;;;;31.67;14.20;;;;;;;25.19;41.10;100286.47;5091304;28;20044;-65
2022/08/12 04:32:34;;;;;;;37.90;13.50;;;;;;;25.23;41.12;100283.06;5091394;28;20050;-66
2022/08/12 04:35:00;;;;;;;33.25;15.52;;;;;;;24.96;41.53;100267.44;5091030;28;20047;-65
2022/08/12 04:37:26;;;;;;;35.67;14.13;;;;;;;25.15;41.01;100283.44;5091067;28;20477;-65
2022/08/12 04:39:52;;;;;;;45.35;15.02;;;;;;;25.18;41.04;100282.94;5091332;28;20084;-65
2022/08/12 04:42:19;;;;;;;40.85;15.40;;;;;;;25.17;40.52;100270.41;5089720;28;20067;-64
2022/08/12 04:44:45;;;;;;;39.15;15.40;;;;;;;25.34;40.58;100293.13;5073177;28;20178;-64
2022/08/12 04:47:12;;;;;;;31.33;14.38;;;;;;;25.43;40.09;100283.53;5091124;28;20499;-65
2022/08/12 04:49:39;;;;;;;36.03;16.40;;;;;;;25.53;40.12;100282.94;5089773;28;20041;-65
2022/08/12 04:52:05;;;;;;;42.58;16.67;;;;;;;25.53;40.04;100267.44;5090828;28;20044;-65
2022/08/12 04:54:32;;;;;;;37.08;16.33;;;;;;;25.64;39.66;100285.66;5089566;28;20626;-65
2022/08/12 04:56:59;;;;;;;33.17;15.93;;;;;;;25.83;38.86;100281.69;5072739;28;20039;-65
2022/08/12 04:59:25;;;;;;;41.83;17.15;;;;;;;25.85;38.56;100287.72;5089602;28;20040;-67
2022/08/12 05:01:52;;;;;;;40.58;17.00;;;;;;;25.99;38.12;100275.50;5072762;28;20058;-65
2022/08/12 05:04:21;;;;;;;40.63;16.35;;;;;;;26.22;38.12;100285.47;5089302;28;20390;-65
2022/08/12 05:06:47;;;;;;;36.80;17.60;;;;;;;26.14;38.14;100294.03;5072920;28;20042;-65
2022/08/12 05:09:14;;;;;;;41.58;16.38;;;;;;;26.29;37.66;100284.25;5089270;28;20079;-65
2022/08/12 05:11:40;;;;;;;38.65;16.27;;;;;;;26.31;37.72;100284.00;5090769;28;20071;-66
2022/08/12 05:14:06;;;;;;;41.15;17.30;;;;;;;26.38;37.99;100290.16;5090421;28;20496;-65
2022/08/12 05:16:31;;;;;;;38.50;17.80;;;;;;;26.37;37.98;100269.41;5055845;28;20052;-66
2022/08/12 05:18:58;;;;;;;39.17;17.10;;;;;;;26.56;38.08;100289.91;5089444;28;20044;-66
2022/08/12 05:21:23;;;;;;;29.25;15.00;;;;;;;26.62;36.88;100282.69;5089611;28;20067;-65
2022/08/12 05:23:54;;;;;;;37.47;14.05;;;;;;;26.71;36.55;100287.47;5090558;28;20150;-65
2022/08/12 05:26:21;;;;;;;28.02;13.35;;;;;;;26.84;36.16;100291.78;5089113;28;20493;-66
2022/08/12 05:28:49;;;;;;;30.27;12.75;;;;;;;26.91;35.79;100304.16;5090986;28;20044;-65
2022/08/12 05:31:16;;;;;;;31.92;12.95;;;;;;;27.10;35.67;100307.47;5089754;28;20035;-66
2022/08/12 05:33:44;;;;;;;25.98;10.50;;;;;;;27.13;34.70;100298.78;5091758;28;20043;-65
2022/08/12 05:36:14;;;;;;;27.90;11.70;;;;;;;27.39;35.28;100300.84;5090931;28;20189;-65
2022/08/12 05:38:56;;;;;;;23.35;11.57;;;;;;;27.55;35.74;100300.00;5089064;28;20505;-65
2022/08/12 05:41:26;;;;;;;29.15;10.73;;;;;;;27.59;34.72;100301.13;5090616;28;20214;-66
2022/08/12 05:43:54;;;;;;;14.23;5.13;;;;;;;27.58;32.29;100299.50;5072400;28;20052;-66
2022/08/12 05:46:26;;;;;;;13.95;5.53;;;;;;;27.68;31.58;100296.88;5089177;28;20413;-66
2022/08/12 05:48:53;;;;;;;14.00;3.60;;;;;;;27.67;30.94;100297.97;5089362;28;20046;-65
2022/08/12 05:51:23;;;;;;;9.23;3.30;;;;;;;27.68;30.00;100275.88;5090001;28;20143;-66
2022/08/12 05:53:51;;;;;;;9.18;4.40;;;;;;;27.91;30.90;100296.66;5093023;28;20047;-65
2022/08/12 05:56:25;;;;;;;7.85;2.78;;;;;;;27.97;29.09;100287.44;5094329;28;20044;-65
2022/08/12 05:58:52;;;;;;;6.28;2.90;;;;;;;28.08;29.23;100296.59;5094443;28;20173;-65
2022/08/12 06:01:20;;;;;;;3.63;2.63;;;;;;;28.18;28.78;100289.34;5092609;28;20052;-65
2022/08/12 06:03:49;;;;;;;4.88;2.08;;;;;;;28.14;28.55;100298.31;5076468;28;20385;-65
2022/08/12 06:06:16;;;;;;;5.05;2.65;;;;;;;28.37;29.08;100298.81;5075928;28;20059;-65
2022/08/12 06:08:47;;;;;;;5.88;2.80;;;;;;;28.45;29.14;100295.63;5094107;28;20036;-66
2022/08/12 06:11:17;;;;;;;7.50;3.92;;;;;;;28.44;29.71;100283.06;5092777;28;20101;-65
2022/08/12 06:13:44;;;;;;;7.22;4.00;;;;;;;28.52;29.84;100301.75;5094034;28;20032;-65
2022/08/12 06:16:13;;;;;;;7.93;3.65;;;;;;;28.65;29.76;100298.59;5092698;28;20124;-65
2022/08/12 06:18:39;;;;;;;10.18;3.95;;;;;;;28.66;30.08;100294.75;5092764;28;20055;-65
2022/08/12 06:21:13;;;;;;;8.93;3.30;;;;;;;28.86;30.24;100289.47;5094098;28;20075;-65
2022/08/12 06:23:39;;;;;;;10.82;4.25;;;;;;;28.83;30.03;100286.44;5093786;28;20127;-66
2022/08/12 06:26:10;;;;;;;12.90;4.00;;;;;;;29.00;29.90;100293.41;5093486;28;20074;-66
2022/08/12 06:28:39;;;;;;;12.65;3.80;;;;;;;29.06;29.88;100291.59;5093957;28;20039;-65
2022/08/12 06:31:08;;;;;;;6.68;3.10;;;;;;;29.05;29.80;100292.63;5093471;28;20054;-66
2022/08/12 06:33:34;;;;;;;9.50;3.60;;;;;;;29.29;29.33;100300.22;5093656;28;20044;-65
2022/08/12 06:36:00;;;;;;;7.13;2.78;;;;;;;29.42;28.79;100296.19;5092301;28;20378;-66
2022/08/12 06:38:29;;;;;;;8.48;2.90;;;;;;;29.53;28.36;100289.69;5093720;28;20094;-65
2022/08/12 06:43:44;;;;;;;7.45;3.20;;;;;;;29.77;28.42;100301.88;5093619;28;20101;-66
2022/08/12 06:46:11;;;;;;;8.82;3.20;;;;;;;29.76;28.19;100299.41;5093140;28;20075;-66
2022/08/12 06:48:37;;;;;;;6.60;2.78;;;;;;;29.74;28.59;100291.44;5093457;28;20410;-67
2022/08/12 06:51:03;;;;;;;11.27;3.15;;;;;;;29.76;28.18;100300.22;5092082;28;20044;-67
2022/08/12 06:53:32;;;;;;;8.25;3.40;;;;;;;29.98;28.19;100289.91;5093275;28;20382;-66
2022/08/12 06:55:59;;;;;;;5.03;3.20;;;;;;;30.07;28.19;100292.94;5092393;28;20052;-66
2022/08/12 06:58:29;;;;;;;11.02;3.75;;;;;;;30.13;28.46;100300.09;5092314;28;20106;-66
2022/08/12 07:00:56;;;;;;;5.90;3.20;;;;;;;30.20;28.68;100281.53;5075253;28;20040;-66
2022/08/12 07:03:29;;;;;;;6.10;3.10;;;;;;;30.34;27.91;100294.44;5092020;28;20451;-67
2022/08/12 07:05:56;;;;;;;4.20;2.90;;;;;;;30.47;27.35;100293.91;5092164;28;20063;-66
2022/08/12 07:08:28;;;;;;;12.65;2.92;;;;;;;30.75;26.68;100298.88;5093524;28;20044;-66
2022/08/12 07:11:01;;;;;;;7.65;2.60;;;;;;;30.89;26.43;100297.25;5093655;28;20397;-66
2022/08/12 07:13:36;;;;;;;4.78;2.67;;;;;;;31.15;25.93;100276.13;5093208;28;20039;-66
2022/08/12 07:16:02;;;;;;;3.88;2.72;;;;;;;31.42;26.18;100275.78;5093294;28;20086;-66
2022/08/12 07:18:37;;;;;;;6.35;2.90;;;;;;;32.08;25.45;100293.69;5093308;28;20051;-66
2022/08/12 07:21:04;;;;;;;5.78;2.53;;;;;;;33.37;23.34;100288.31;5093471;28;20270;-65
2022/08/12 07:23:32;;;;;;;7.38;2.20;;;;;;;35.18;21.19;100286.59;5093446;28;20067;-65
2022/08/12 07:26:01;;;;;;;4.43;2.17;;;;;;;36.91;19.47;100281.53;5092015;28;20055;-66
2022/08/12 07:28:30;;;;;;;8.93;2.45;;;;;;;39.49;16.42;100287.25;5092800;28;20066;-66
2022/08/12 07:30:57;;;;;;;4.35;2.10;;;;;;;41.95;13.68;100293.78;5092651;28;20055;-67
2022/08/12 07:33:26;;;;;;;3.97;1.65;;;;;;;43.79;11.58;100293.09;5091724;28;20405;-66
2022/08/12 07:35:54;;;;;;;8.00;1.90;;;;;;;45.30;10.64;100294.44;5074894;28;20048;-67
2022/08/12 07:38:24;;;;;;;3.33;1.40;;;;;;;46.50;9.65;100293.56;5091522;28;20413;-66
2022/08/12 07:41:02;;;;;;;7.03;2.10;;;;;;;47.75;9.08;100281.25;5092461;28;20521;-67
2022/08/12 07:43:29;;;;;;;9.77;2.55;;;;;;;48.77;8.38;100268.53;5091532;28;20540;-67
2022/08/12 07:45:56;;;;;;;7.68;1.67;;;;;;;49.17;7.61;100282.34;5092497;28;20565;-67
2022/08/12 07:48:23;;;;;;;6.28;1.60;;;;;;;50.02;7.27;100291.69;5091392;28;20547;-67
2022/08/12 07:50:49;;;;;;;3.00;1.40;;;;;;;50.86;6.43;100265.09;5091187;28;20056;-66
2022/08/12 07:53:15;;;;;;;2.92;1.42;;;;;;;51.75;6.13;100281.03;5092548;28;20047;-67
2022/08/12 07:55:41;;;;;;;9.63;1.55;;;;;;;51.70;6.19;100261.69;5092402;28;20170;-68
2022/08/12 07:58:07;;;;;;;3.15;1.48;;;;;;;51.72;5.50;100270.53;5091465;28;20036;-68
2022/08/12 08:00:35;;;;;;;8.02;1.40;;;;;;;51.16;5.47;100271.00;5074823;28;20051;-68
2022/08/12 08:03:01;;;;;;;6.00;1.95;;;;;;;50.80;5.57;100275.25;5092478;28;20046;-68
2022/08/12 08:05:38;;;;;;;4.75;1.45;;;;;;;50.20;5.96;100279.09;5092143;28;20142;-68
2022/08/12 08:08:15;;;;;;;2.38;1.20;;;;;;;50.29;5.34;100273.00;5091254;28;20085;-68
2022/08/12 08:10:41;;;;;;;1.85;1.20;;;;;;;51.13;5.09;100275.47;5091901;28;20050;-69
2022/08/12 08:13:07;;;;;;;2.08;1.20;;;;;;;51.82;4.75;100258.31;5091005;28;20129;-68
2022/08/12 08:15:38;;;;;;;7.75;1.30;;;;;;;51.52;4.58;100258.97;5090543;28;20079;-68
2022/08/12 08:18:06;;;;;;;4.43;1.50;;;;;;;50.93;5.10;100260.22;5091637;28;20056;-69
2022/08/12 08:20:42;;;;;;;3.05;1.30;;;;;;;51.04;5.35;100260.16;5069379;28;20099;-68
2022/08/12 08:23:18;;;;;;;5.03;1.40;;;;;;;50.30;5.49;100274.63;5037814;28;20075;-68
2022/08/12 08:25:49;;;;;;;2.17;1.30;;;;;;;50.10;5.68;100271.44;5071768;28;20127;-68
2022/08/12 08:28:18;;;;;;;4.83;1.50;;;;;;;50.65;5.54;100262.38;5070848;28;20059;-67
2022/08/12 08:30:44;;;;;;;;;;;;;;;51.93;5.51;100256.16;5071339;28;20037;-68
2022/08/12 08:33:12;;;;;;;4.75;1.52;;;;;;;52.79;4.42;100266.91;5072043;28;20389;-68
2022/08/12 08:35:39;;;;;;;3.42;1.02;;;;;;;53.88;3.89;100258.59;5071745;28;20059;-68
2022/08/12 08:38:09;;;;;;;4.70;1.40;;;;;;;54.64;3.79;100259.09;5071781;28;20052;-68
2022/08/12 08:43:21;;;;;;;8.15;1.50;;;;;;;56.07;3.29;100248.16;5069892;28;20076;-69
2022/08/12 08:45:47;;;;;;;8.45;1.50;;;;;;;56.74;3.18;100237.59;5070247;28;20082;-68
2022/08/12 08:48:13;;;;;;;7.57;1.52;;;;;;;57.22;2.60;100253.59;5071303;28;20235;-68
2022/08/12 08:50:42;;;;;;;4.88;1.70;;;;;;;57.42;2.65;100240.63;5072058;28;20510;-69
2022/08/12 08:53:07;;;;;;;4.93;1.48;;;;;;;57.22;2.10;100250.72;5071311;28;20044;-68
2022/08/12 08:55:36;;;;;;;5.55;1.20;;;;;;;54.99;2.97;100242.44;5071119;28;20048;-68
2022/08/12 08:58:02;;;;;;;7.90;1.52;;;;;;;54.77;3.51;100242.13;5071593;28;20051;-69
2022/08/12 09:00:29;;;;;;;4.93;1.58;;;;;;;54.09;3.90;100222.03;5071749;28;20507;-67
2022/08/12 09:02:54;;;;;;;9.90;2.10;;;;;;;54.40;3.59;100229.13;5071869;28;20094;-66
2022/08/12 09:05:20;;;;;;;4.82;1.60;;;;;;;53.77;3.66;100229.59;5071117;28;20063;-69
2022/08/12 09:07:49;;;;;;;5.22;1.60;;;;;;;53.90;3.40;100233.44;5070498;28;20107;-68
2022/08/12 09:10:18;;;;;;;3.58;1.65;;;;;;;54.60;3.51;100231.97;5071227;28;20127;-68
2022/08/12 09:15:33;;;;;;;;;;;;;;;56.21;2.42;100224.13;5071214;28;20048;-68
2022/08/12 09:18:00;;;;;;;4.45;1.40;;;;;;;56.94;2.34;100220.22;5070750;28;19955;-68
2022/08/12 09:20:29;;;;;;;4.57;1.38;;;;;;;57.78;2.32;100220.16;5070577;28;20051;-68
2022/08/12 09:22:56;;;;;;;2.92;1.40;;;;;;;57.81;2.24;100216.38;5069413;28;20047;-68
2022/08/12 09:25:26;;;;;;;2.47;1.20;;;;;;;55.81;2.34;100202.88;5069526;28;20044;-68
2022/08/12 09:27:53;;;;;;;3.28;1.30;;;;;;;56.18;2.72;100211.56;5053406;28;20047;-68
2022/08/12 09:30:19;;;;;;;2.65;1.15;;;;;;;56.73;2.35;100215.22;5069535;28;20052;-69
2022/08/12 09:32:51;;;;;;;4.45;1.33;;;;;;;57.39;2.31;100209.34;5036424;28;20521;-69
2022/08/12 09:35:22;;;;;;;5.70;1.20;;;;;;;57.92;1.92;100211.09;5052621;28;20045;-69
2022/08/12 09:37:49;;;;;;;6.38;1.42;;;;;;;57.72;1.76;100208.53;5070359;28;20055;-69
2022/08/12 09:40:16;;;;;;;3.63;1.30;;;;;;;56.36;2.13;100198.84;5068837;28;20119;-68
2022/08/12 09:45:30;;;;;;;2.08;1.20;;;;;;;57.18;1.98;100199.41;5070287;28;20136;-68
2022/08/12 09:47:58;;;;;;;4.30;1.38;;;;;;;57.51;1.83;100194.19;5070187;28;20516;-68
2022/08/12 09:50:24;;;;;;;4.72;1.48;;;;;;;57.68;1.77;100189.91;5070459;28;20063;-68
2022/08/12 09:53:23;;;;;;;4.85;1.35;;;;;;;57.40;1.91;100194.59;5068973;28;20080;-68
2022/08/12 09:55:51;;;;;;;2.33;1.20;;;;;;;57.21;2.14;100167.06;5067933;28;20048;-68
2022/08/12 09:58:24;;;;;;;5.22;1.30;;;;;;;56.38;2.35;100179.22;5068862;28;20446;-67
2022/08/12 10:00:53;;;;;;;4.22;1.30;;;;;;;55.60;2.68;100177.78;5068557;28;20049;-69
2022/08/12 10:03:20;;;;;;;3.78;1.50;;;;;;;54.30;2.97;100172.47;5052070;28;20135;-68
2022/08/12 10:05:47;;;;;;;6.18;1.70;;;;;;;54.52;3.28;100167.91;5069934;28;20525;-68
2022/08/12 10:08:15;;;;;;;8.02;1.50;;;;;;;55.13;3.08;100168.03;5069730;28;20048;-69
2022/08/12 10:13:43;;;;;;;7.55;1.60;;;;;;;56.02;2.80;100168.03;5069995;28;20494;-68
2022/08/12 10:16:17;;;;;;;3.90;1.23;;;;;;;56.82;2.22;100166.78;5070057;28;20041;-68
2022/08/12 10:19:01;;;;;;;4.10;1.27;;;;;;;57.66;1.78;100166.69;5068623;28;20052;-69
2022/08/12 10:21:35;;;;;;;5.00;1.50;;;;;;;57.89;1.97;100157.69;5069745;28;20118;-67
2022/08/12 10:24:07;;;;;;;4.35;1.58;;;;;;;56.86;2.18;100170.28;5069915;28;20048;-69
2022/08/12 10:29:38;;;;;;;3.15;1.45;;;;;;;55.22;2.98;100148.28;5054457;28;20146;-68
2022/08/12 10:32:09;;;;;;;8.00;1.60;;;;;;;54.87;3.57;100140.66;5068415;28;20243;-68
2022/08/12 10:34:35;;;;;;;8.57;1.52;;;;;;;54.59;3.53;100144.97;5068468;28;20174;-68
2022/08/12 10:37:02;;;;;;;4.70;1.38;;;;;;;54.73;3.58;100130.41;5069822;28;20087;-68
2022/08/12 10:39:31;;;;;;;9.40;1.60;;;;;;;54.97;3.57;100123.28;5073040;28;20044;-69
2022/08/12 10:45:09;;;;;;;4.55;1.50;;;;;;;54.02;4.06;100128.38;5072172;28;20407;-68
2022/08/12 10:47:38;;;;;;;5.75;1.30;;;;;;;54.16;3.98;100125.19;5055200;28;20040;-68
2022/08/12 10:50:06;;;;;;;6.70;1.60;;;;;;;52.24;4.43;100116.03;5073172;28;20390;-68
2022/08/12 10:52:32;;;;;;;6.85;1.60;;;;;;;50.97;5.01;100113.00;5072946;28;20036;-68
2022/08/12 10:54:58;;;;;;;7.00;1.77;;;;;;;50.81;5.09;100115.56;5072731;28;20052;-68
2022/08/12 10:57:25;;;;;;;5.25;1.70;;;;;;;51.11;5.11;100093.88;5073151;28;20040;-68
2022/08/12 10:59:56;;;;;;;9.25;1.42;;;;;;;52.30;4.38;100103.03;5055009;28;20051;-68
2022/08/12 11:02:27;;;;;;;7.70;1.50;;;;;;;53.32;4.10;100107.00;5071549;28;20044;-68
2022/08/12 11:04:56;;;;;;;12.02;1.60;;;;;;;53.68;4.28;100109.97;5073025;28;20045;-68
2022/08/12 11:07:28;;;;;;;7.55;1.33;;;;;;;53.77;3.76;100104.50;5055315;28;20048;-68
2022/08/12 11:09:54;;;;;;;8.43;1.50;;;;;;;53.74;3.87;100102.53;5071456;28;20045;-68
2022/08/12 11:12:20;;;;;;;4.47;1.30;;;;;;;53.90;3.73;100100.56;5072708;28;20055;-68
2022/08/12 11:14:46;;;;;;;3.85;1.30;;;;;;;53.76;3.98;100094.38;5071863;28;20072;-69
2022/08/12 11:17:13;;;;;;;5.85;1.40;;;;;;;53.64;3.66;100075.16;5071999;28;20072;-68
2022/08/12 11:19:40;;;;;;;5.88;1.55;;;;;;;53.20;4.20;100079.22;5072693;28;20579;-67
2022/08/12 11:22:07;;;;;;;9.30;1.52;;;;;;;53.00;4.35;100084.06;5071416;28;20386;-68
2022/08/12 11:24:33;;;;;;;2.90;1.50;;;;;;;51.80;4.46;100068.03;5072475;28;20047;-67
2022/08/12 11:27:00;;;;;;;6.35;1.33;;;;;;;50.05;6.27;100068.38;5072597;28;20045;-67
2022/08/12 11:29:27;;;;;;;4.13;1.50;;;;;;;48.50;6.82;100061.38;5072320;28;20044;-67
2022/08/12 11:31:53;;;;;;;5.72;1.80;;;;;;;47.25;6.91;100055.66;5071058;28;20048;-67
2022/08/12 11:34:19;;;;;;;9.30;2.08;;;;;;;46.30;7.16;100050.38;5072038;28;20040;-68
2022/08/12 11:37:11;;;;;;;3.20;1.60;;;;;;;45.48;8.04;100050.56;5071458;28;20090;-73
2022/08/12 11:39:37;;;;;;;5.00;1.80;;;;;;;44.26;9.28;100048.16;5073172;28;20056;-68
2022/08/12 11:42:02;;;;;;;5.22;1.80;;;;;;;43.31;9.97;100052.88;5071158;28;20559;-68
2022/08/12 11:44:28;;;;;;;13.48;2.35;;;;;;;42.57;10.42;100045.44;5072412;28;20091;-68
2022/08/12 11:46:54;;;;;;;6.88;1.83;;;;;;;41.77;10.55;100036.44;5072357;28;20048;-67
2022/08/12 11:49:22;;;;;;;6.78;2.03;;;;;;;41.04;11.55;100018.22;5071308;28;20044;-68
2022/08/12 11:51:48;;;;;;;7.82;2.13;;;;;;;40.37;11.58;100031.88;5070998;28;20044;-68
2022/08/12 11:54:13;;;;;;;10.13;1.80;;;;;;;39.51;12.84;100038.25;5072188;28;20064;-68
2022/08/12 11:56:39;;;;;;;5.72;2.00;;;;;;;38.29;13.82;99990.34;5071839;28;20509;-68
2022/08/12 11:59:05;;;;;;;5.20;1.80;;;;;;;37.46;14.54;100021.44;5071982;28;20056;-68
2022/08/12 12:01:30;;;;;;;5.93;1.90;;;;;;;37.03;15.32;100004.75;5072177;28;20180;-68
2022/08/12 12:03:56;;;;;;;10.43;2.05;;;;;;;36.88;15.68;100016.28;5073345;28;20080;-68
2022/08/12 12:06:22;;;;;;;9.65;2.47;;;;;;;36.68;16.21;100014.09;5071982;28;20052;-67
2022/08/12 12:08:47;;;;;;;9.25;2.00;;;;;;;36.58;15.67;100022.66;5070985;28;20051;-67
2022/08/12 12:11:13;;;;;;;9.25;2.40;;;;;;;36.49;15.80;100026.56;5070809;28;20436;-66
2022/08/12 12:13:39;;;;;;;5.18;1.90;;;;;;;36.41;15.84;100005.19;5070597;28;20114;-66
2022/08/12 12:16:05;;;;;;;6.53;2.25;;;;;;;36.47;16.34;100017.75;5070431;28;20123;-67
2022/08/12 12:18:32;;;;;;;8.68;2.10;;;;;;;36.50;16.13;100019.88;5053859;28;20044;-66
2022/08/12 12:21:03;;;;;;;6.30;1.92;;;;;;;36.54;15.83;100021.69;5071671;28;20567;-67
2022/08/12 12:23:30;;;;;;;4.43;2.10;;;;;;;36.41;16.36;100016.25;5071529;28;20039;-67
2022/08/12 12:25:56;;;;;;;8.40;3.05;;;;;;;36.29;16.75;100007.72;5071544;28;20049;-67
2022/08/12 12:28:22;;;;;;;6.30;2.00;;;;;;;35.91;16.39;99995.44;5070690;28;20049;-67
2022/08/12 12:30:48;;;;;;;7.25;2.00;;;;;;;35.75;16.35;100000.53;5053987;28;20505;-66
2022/08/12 12:33:13;;;;;;;9.02;2.30;;;;;;;35.39;16.60;100006.09;5071351;28;20097;-67
2022/08/12 12:35:39;;;;;;;6.20;2.08;;;;;;;35.32;16.76;100007.63;5054123;28;20541;-66
2022/08/12 12:38:08;;;;;;;9.52;2.13;;;;;;;35.30;16.97;99999.66;5070534;28;20501;-66
2022/08/12 12:40:35;;;;;;;18.85;2.42;;;;;;;35.37;17.01;100002.81;5053800;28;20048;-66
2022/08/12 12:43:01;;;;;;;6.43;2.30;;;;;;;35.27;16.67;100000.28;5053471;28;20166;-67
2022/08/12 12:45:28;;;;;;;6.20;2.03;;;;;;;35.23;16.59;100004.78;5070154;28;20414;-66
2022/08/12 12:47:58;;;;;;;4.38;2.28;;;;;;;34.97;17.30;99995.44;5053773;28;20048;-67
2022/08/12 12:50:36;;;;;;;7.03;2.25;;;;;;;34.98;17.35;99993.50;5071652;28;20040;-67
2022/08/12 12:53:03;;;;;;;8.70;2.10;;;;;;;34.52;17.96;99987.25;5070155;28;20045;-66
2022/08/12 12:55:30;;;;;;;8.30;2.33;;;;;;;34.31;18.22;100002.53;5053496;28;20044;-66
2022/08/12 12:57:57;;;;;;;3.40;2.28;;;;;;;34.01;18.80;100001.97;5069969;28;20048;-67
2022/08/12 13:00:24;;;;;;;5.95;2.95;;;;;;;33.81;19.36;99982.19;5037058;28;20048;-67
2022/08/12 13:02:54;;;;;;;6.60;2.55;;;;;;;33.60;19.24;99975.38;5053602;28;20106;-66
2022/08/12 13:05:37;;;;;;;6.18;2.10;;;;;;;33.57;19.54;100007.09;5070025;28;20514;-66
2022/08/12 13:08:23;;;;;;;5.80;2.47;;;;;;;33.31;19.63;99999.50;5053035;28;20041;-67
2022/08/12 13:10:53;;;;;;;10.48;2.30;;;;;;;33.41;19.32;99989.19;5070579;28;20445;-67
2022/08/12 13:13:21;;;;;;;6.20;2.28;;;;;;;33.32;19.56;99977.16;5053204;28;20155;-66
2022/08/12 13:15:48;;;;;;;8.07;2.40;;;;;;;33.55;19.37;99992.81;5070416;28;20048;-66